createdAt,value
2018-02-21T00:02:26.541Z,27.17
2018-02-21T00:04:54.820Z,26.57
2018-02-21T00:07:23.101Z,22.53
2018-02-21T00:09:51.683Z,26.90
2018-02-21T00:12:20.665Z,26.00
2018-02-21T00:14:49.891Z,25.27
2018-02-21T00:17:18.200Z,27.07
2018-02-21T00:19:47.237Z,23.43
2018-02-21T00:22:15.533Z,26.20
2018-02-21T00:24:43.848Z,27.97
2018-02-21T00:27:12.879Z,23.50
2018-02-21T00:29:41.178Z,28.40
2018-02-21T00:32:09.500Z,24.90
2018-02-21T00:34:38.622Z,25.30
2018-02-21T00:37:06.908Z,24.93
2018-02-21T00:39:35.762Z,26.10
2018-02-21T00:42:04.873Z,27.03
2018-02-21T00:44:33.932Z,26.47
2018-02-21T00:47:03.153Z,27.20
2018-02-21T00:49:33.076Z,25.53
2018-02-21T00:52:02.914Z,27.00
2018-02-21T00:54:31.180Z,29.03
2018-02-21T00:56:59.588Z,25.30
2018-02-21T00:59:27.868Z,25.10
2018-02-21T01:01:56.141Z,24.80
2018-02-21T01:04:24.506Z,27.37
2018-02-21T01:06:52.930Z,28.10
2018-02-21T01:09:21.234Z,26.40
2018-02-21T01:11:50.312Z,29.97
2018-02-21T01:14:19.011Z,28.73
2018-02-21T01:16:48.216Z,26.33
2018-02-21T01:19:17.297Z,25.90
2018-02-21T01:21:45.984Z,26.47
2018-02-21T01:24:14.275Z,26.83
2018-02-21T01:26:43.029Z,24.60
2018-02-21T01:29:11.744Z,24.73
2018-02-21T01:31:40.370Z,24.00
2018-02-21T01:34:08.684Z,26.67
2018-02-21T01:36:36.966Z,29.13
2018-02-21T01:39:05.243Z,27.40
2018-02-21T01:41:33.607Z,29.67
2018-02-21T01:44:01.888Z,27.03
2018-02-21T01:46:30.429Z,27.77
2018-02-21T01:48:58.747Z,27.73
2018-02-21T01:51:27.024Z,26.80
2018-02-21T01:53:55.752Z,23.57
2018-02-21T01:56:24.999Z,28.40
2018-02-21T01:58:53.281Z,26.43
2018-02-21T02:01:21.558Z,22.93
2018-02-21T02:03:49.926Z,23.57
2018-02-21T02:06:18.199Z,22.90
2018-02-21T02:08:46.480Z,28.23
2018-02-21T02:11:14.788Z,28.47
2018-02-21T02:13:43.581Z,27.13
2018-02-21T02:16:12.309Z,23.37
2018-02-21T02:18:41.438Z,27.40
2018-02-21T02:21:09.717Z,22.80
2018-02-21T02:23:39.660Z,25.00
2018-02-21T02:26:08.000Z,25.07
2018-02-21T02:28:37.865Z,26.77
2018-02-21T02:31:06.764Z,25.47
2018-02-21T02:33:35.749Z,25.40
2018-02-21T02:36:04.749Z,27.47
2018-02-21T02:38:42.535Z,24.00
2018-02-21T02:41:10.815Z,23.37
2018-02-21T02:43:39.598Z,27.43
2018-02-21T02:46:08.178Z,24.37
2018-02-21T02:48:36.588Z,25.73
2018-02-21T02:51:04.898Z,22.93
2018-02-21T02:53:34.049Z,24.50
2018-02-21T02:56:02.325Z,23.50
2018-02-21T02:58:30.608Z,28.93
2018-02-21T03:00:58.909Z,27.50
2018-02-21T03:03:27.981Z,28.97
2018-02-21T03:05:56.717Z,24.07
2018-02-21T03:08:25.006Z,23.80
2018-02-21T03:10:53.336Z,26.47
2018-02-21T03:13:21.952Z,26.17
2018-02-21T03:15:50.992Z,26.20
2018-02-21T03:18:19.320Z,28.90
2018-02-21T03:20:48.359Z,26.27
2018-02-21T03:23:16.657Z,23.70
2018-02-21T03:25:45.307Z,26.20
2018-02-21T03:28:13.588Z,22.53
2018-02-21T03:30:41.881Z,25.97
2018-02-21T03:33:10.168Z,24.90
2018-02-21T03:35:38.927Z,26.63
2018-02-21T03:38:07.240Z,25.67
2018-02-21T03:40:36.580Z,28.63
2018-02-21T03:43:06.988Z,29.90
2018-02-21T03:45:36.144Z,29.33
2018-02-21T03:48:04.418Z,27.00
2018-02-21T03:50:32.923Z,28.70
2018-02-21T03:53:01.232Z,26.90
2018-02-21T03:55:29.512Z,28.40
2018-02-21T03:58:00.128Z,26.60
2018-02-21T04:00:28.668Z,29.50
2018-02-21T04:02:58.769Z,27.33
2018-02-21T04:05:27.831Z,28.13
2018-02-21T04:07:56.897Z,28.47
2018-02-21T04:10:25.184Z,27.63
2018-02-21T04:12:54.167Z,26.37
2018-02-21T04:15:23.300Z,25.03
2018-02-21T04:17:53.470Z,29.77
2018-02-21T04:20:21.846Z,27.50
2018-02-21T04:22:50.740Z,28.70
2018-02-21T04:25:19.045Z,27.93
2018-02-21T04:27:47.471Z,27.63
2018-02-21T04:30:16.617Z,29.63
2018-02-21T04:32:45.036Z,27.43
2018-02-21T04:35:13.888Z,27.50
2018-02-21T04:37:42.367Z,25.60
2018-02-21T04:40:12.227Z,26.80
2018-02-21T04:42:40.535Z,25.40
2018-02-21T04:45:09.791Z,28.27
2018-02-21T04:47:38.144Z,26.20
2018-02-21T04:50:07.157Z,31.00
2018-02-21T04:52:36.332Z,24.63
2018-02-21T04:55:11.048Z,25.67
2018-02-21T04:57:39.491Z,29.83
2018-02-21T05:00:10.209Z,27.30
2018-02-21T05:02:40.193Z,27.50
2018-02-21T05:05:08.484Z,27.93
2018-02-21T05:07:36.774Z,26.50
2018-02-21T05:10:05.146Z,28.20
2018-02-21T05:12:34.421Z,26.10
2018-02-21T05:15:04.810Z,27.77
2018-02-21T05:17:33.378Z,28.27
2018-02-21T05:20:01.684Z,27.37
2018-02-21T05:22:30.732Z,28.30
2018-02-21T05:24:59.324Z,28.93
2018-02-21T05:27:28.478Z,26.60
2018-02-21T05:29:59.042Z,26.37
2018-02-21T05:32:27.375Z,27.57
2018-02-21T05:34:56.846Z,26.93
2018-02-21T05:37:25.144Z,25.30
2018-02-21T05:39:54.481Z,29.40
2018-02-21T05:42:22.765Z,29.33
2018-02-21T05:44:51.140Z,29.87
2018-02-21T05:47:19.643Z,27.07
2018-02-21T05:49:50.516Z,27.90
2018-02-21T05:52:18.811Z,28.07
2018-02-21T05:54:47.876Z,28.30
2018-02-21T05:57:16.182Z,26.37
2018-02-21T05:59:45.837Z,26.37
2018-02-21T06:02:14.116Z,24.40
2018-02-21T06:04:42.769Z,32.33
2018-02-21T06:07:11.812Z,29.33
2018-02-21T06:09:40.422Z,27.63
2018-02-21T06:12:09.195Z,28.23
2018-02-21T06:14:38.296Z,29.67
2018-02-21T06:17:06.639Z,23.40
2018-02-21T06:19:35.292Z,29.07
2018-02-21T06:22:05.105Z,27.80
2018-02-21T06:24:34.160Z,27.77
2018-02-21T06:27:03.841Z,28.87
2018-02-21T06:29:33.105Z,23.23
2018-02-21T06:32:02.252Z,28.17
2018-02-21T06:34:31.836Z,30.67
2018-02-21T06:37:01.459Z,30.60
2018-02-21T06:39:30.358Z,30.50
2018-02-21T06:41:59.769Z,27.93
2018-02-21T06:44:28.505Z,28.87
2018-02-21T06:46:57.340Z,27.67
2018-02-21T06:49:26.219Z,30.30
2018-02-21T06:51:56.058Z,28.37
2018-02-21T06:54:24.346Z,27.73
2018-02-21T06:56:53.261Z,27.53
2018-02-21T06:59:22.144Z,30.20
2018-02-21T07:01:52.931Z,29.40
2018-02-21T07:04:22.519Z,30.40
2018-02-21T07:06:52.368Z,28.10
2018-02-21T07:09:20.660Z,29.83
2018-02-21T07:11:49.843Z,30.10
2018-02-21T07:14:19.672Z,28.20
2018-02-21T07:16:47.976Z,33.53
2018-02-21T07:19:16.311Z,30.37
2018-02-21T07:21:45.403Z,27.07
2018-02-21T07:24:13.795Z,29.90
2018-02-21T07:26:43.520Z,32.50
2018-02-21T07:29:11.805Z,30.80
2018-02-21T07:31:40.180Z,31.07
2018-02-21T07:34:08.652Z,24.37
2018-02-21T07:36:37.308Z,30.90
2018-02-21T07:39:05.621Z,30.60
2018-02-21T07:41:33.904Z,27.50
2018-02-21T07:44:02.301Z,27.40
2018-02-21T07:46:31.317Z,30.83
2018-02-21T07:49:00.483Z,27.50
2018-02-21T07:51:47.875Z,27.73
2018-02-21T07:54:16.562Z,27.77
2018-02-21T07:56:45.838Z,28.37
2018-02-21T07:59:15.769Z,26.70
2018-02-21T08:01:47.776Z,26.00
2018-02-21T08:04:16.327Z,27.30
2018-02-21T08:06:44.709Z,29.80
2018-02-21T08:09:15.416Z,30.13
2018-02-21T08:11:44.691Z,27.13
2018-02-21T08:14:12.971Z,29.87
2018-02-21T08:16:41.853Z,29.30
2018-02-21T08:19:10.123Z,25.90
2018-02-21T08:21:39.114Z,28.73
2018-02-21T08:24:08.015Z,28.57
2018-02-21T08:26:37.267Z,29.07
2018-02-21T08:29:06.612Z,27.13
2018-02-21T08:31:35.814Z,29.17
2018-02-21T08:34:04.112Z,31.03
2018-02-21T08:36:32.436Z,27.30
2018-02-21T08:39:02.387Z,23.80
2018-02-21T08:41:30.673Z,26.10
2018-02-21T08:43:59.401Z,27.83
2018-02-21T08:46:28.523Z,22.80
2018-02-21T08:48:56.811Z,21.40
2018-02-21T08:51:25.601Z,26.53
2018-02-21T08:53:54.176Z,23.33
2018-02-21T08:56:23.216Z,21.23
2018-02-21T08:58:51.484Z,23.67
2018-02-21T09:01:20.524Z,24.10
2018-02-21T09:03:49.601Z,23.13
2018-02-21T09:06:18.628Z,26.37
2018-02-21T09:08:48.338Z,23.37
2018-02-21T09:11:16.953Z,23.23
2018-02-21T09:13:46.036Z,24.60
2018-02-21T09:16:15.029Z,21.80
2018-02-21T09:18:44.531Z,24.07
2018-02-21T09:21:15.180Z,24.40
2018-02-21T09:23:43.465Z,19.50
2018-02-21T09:26:11.824Z,26.20
2018-02-21T09:28:40.153Z,24.47
2018-02-21T09:31:09.832Z,25.27
2018-02-21T09:33:39.316Z,23.30
2018-02-21T09:36:08.631Z,22.67
2018-02-21T09:38:36.964Z,22.87
2018-02-21T09:41:06.044Z,22.87
2018-02-21T09:43:35.767Z,23.93
2018-02-21T09:46:04.791Z,19.73
2018-02-21T09:48:34.303Z,23.33
2018-02-21T09:51:02.610Z,22.03
2018-02-21T09:53:31.002Z,22.00
2018-02-21T09:55:59.976Z,21.47
2018-02-21T09:58:29.665Z,17.13
2018-02-21T10:00:58.448Z,18.30
2018-02-21T10:03:26.947Z,20.07
2018-02-21T10:05:56.160Z,21.63
2018-02-21T10:08:25.477Z,22.57
2018-02-21T10:10:53.815Z,21.53
2018-02-21T10:13:23.065Z,20.53
2018-02-21T10:15:51.956Z,21.73
2018-02-21T10:18:20.809Z,20.20
2018-02-21T10:20:49.100Z,22.20
2018-02-21T10:23:17.485Z,21.67
2018-02-21T10:25:45.756Z,24.30
2018-02-21T10:28:14.154Z,20.13
2018-02-21T10:30:42.545Z,22.70
2018-02-21T10:33:11.324Z,20.00
2018-02-21T10:35:39.895Z,24.17
2018-02-21T10:38:08.863Z,27.90
2018-02-21T10:40:37.157Z,21.93
2018-02-21T10:43:05.432Z,20.07
2018-02-21T10:45:33.816Z,20.10
2018-02-21T10:48:02.174Z,17.40
2018-02-21T10:50:30.450Z,19.57
2018-02-21T10:52:59.349Z,14.30
2018-02-21T10:55:27.628Z,15.57
2018-02-21T10:57:55.994Z,16.20
2018-02-21T11:00:30.625Z,18.50
2018-02-21T11:02:58.924Z,23.10
2018-02-21T11:05:27.212Z,21.50
2018-02-21T11:07:55.820Z,13.60
2018-02-21T11:10:25.188Z,14.53
2018-02-21T11:12:53.457Z,15.70
2018-02-21T11:15:22.571Z,15.30
2018-02-21T11:17:50.954Z,11.67
2018-02-21T11:20:19.221Z,12.70
2018-02-21T11:22:47.582Z,12.80
2018-02-21T11:25:16.740Z,12.00
2018-02-21T11:27:45.032Z,12.40
2018-02-21T11:30:14.087Z,14.63
2018-02-21T11:32:42.549Z,13.60
2018-02-21T11:35:10.813Z,13.97
2018-02-21T11:37:39.084Z,16.77
2018-02-21T11:40:07.498Z,16.10
2018-02-21T11:42:36.692Z,14.20
2018-02-21T11:45:04.963Z,15.30
2018-02-21T11:47:33.356Z,13.70
2018-02-21T11:50:01.638Z,13.47
2018-02-21T11:52:29.909Z,13.30
2018-02-21T11:54:58.484Z,13.10
2018-02-21T11:57:28.008Z,12.63
2018-02-21T11:59:57.068Z,14.37
2018-02-21T12:02:26.896Z,15.73
2018-02-21T12:04:55.267Z,15.47
2018-02-21T12:07:23.785Z,15.37
2018-02-21T12:09:52.603Z,16.50
2018-02-21T12:12:21.556Z,16.93
2018-02-21T12:14:49.841Z,16.50
2018-02-21T12:17:18.101Z,16.10
2018-02-21T12:19:46.580Z,17.27
2018-02-21T12:22:14.889Z,16.73
2018-02-21T12:24:43.156Z,15.10
2018-02-21T12:27:11.723Z,17.50
2018-02-21T12:29:40.020Z,18.80
2018-02-21T12:32:21.032Z,18.20
2018-02-21T12:34:50.067Z,31.00
2018-02-21T12:37:18.339Z,27.63
2018-02-21T12:39:46.829Z,21.30
2018-02-21T12:42:15.213Z,20.03
2018-02-21T12:44:44.406Z,22.30
2018-02-21T12:47:13.042Z,18.37
2018-02-21T12:49:41.319Z,18.67
2018-02-21T12:52:09.643Z,18.37
2018-02-21T12:54:37.924Z,16.93
2018-02-21T12:57:06.781Z,17.37
2018-02-21T12:59:37.724Z,17.33
2018-02-21T13:02:07.137Z,17.57
2018-02-21T13:04:35.949Z,15.03
2018-02-21T13:07:04.327Z,17.10
2018-02-21T13:09:32.592Z,19.10
2018-02-21T13:12:01.665Z,15.60
2018-02-21T13:14:31.832Z,16.10
2018-02-21T13:17:00.105Z,17.00
2018-02-21T13:19:28.383Z,17.00
2018-02-21T13:21:57.984Z,15.10
2018-02-21T13:24:26.271Z,16.00
2018-02-21T13:26:55.242Z,15.50
2018-02-21T13:29:24.342Z,17.40
2018-02-21T13:31:53.888Z,16.57
2018-02-21T13:34:22.413Z,15.43
2018-02-21T13:36:51.544Z,16.47
2018-02-21T13:39:19.836Z,16.63
2018-02-21T13:41:48.152Z,16.20
2018-02-21T13:44:16.469Z,16.63
2018-02-21T13:46:45.496Z,15.23
2018-02-21T13:49:13.958Z,14.23
2018-02-21T13:51:42.285Z,14.40
2018-02-21T13:54:10.804Z,15.13
2018-02-21T13:56:39.071Z,14.63
2018-02-21T13:59:07.380Z,14.83
2018-02-21T14:01:35.656Z,14.53
2018-02-21T14:04:03.956Z,16.43
2018-02-21T14:06:32.320Z,15.87
2018-02-21T14:09:00.616Z,17.53
2018-02-21T14:11:28.889Z,12.73
2018-02-21T14:13:57.828Z,14.77
2018-02-21T14:16:27.172Z,14.23
2018-02-21T14:18:55.479Z,16.17
2018-02-21T14:21:24.562Z,15.87
2018-02-21T14:23:52.844Z,14.20
2018-02-21T14:26:21.562Z,15.50
2018-02-21T14:28:50.616Z,12.73
2018-02-21T14:31:19.003Z,14.50
2018-02-21T14:33:47.304Z,16.10
2018-02-21T14:36:15.600Z,15.97
2018-02-21T14:38:45.593Z,17.37
2018-02-21T14:41:13.892Z,19.87
2018-02-21T14:43:43.079Z,17.83
2018-02-21T14:46:11.441Z,16.47
2018-02-21T14:48:40.052Z,15.50
2018-02-21T14:51:09.708Z,18.50
2018-02-21T14:53:38.087Z,18.77
2018-02-21T14:56:06.789Z,16.27
2018-02-21T14:58:35.072Z,17.00
2018-02-21T15:01:03.397Z,15.83
2018-02-21T15:03:33.060Z,16.10
2018-02-21T15:06:01.348Z,14.13
2018-02-21T15:08:30.422Z,14.27
2018-02-21T15:10:58.711Z,12.97
2018-02-21T15:13:27.892Z,13.37
2018-02-21T15:15:57.150Z,14.90
2018-02-21T15:18:26.436Z,15.50
2018-02-21T15:20:54.748Z,14.40
2018-02-21T15:23:23.116Z,13.40
2018-02-21T15:25:51.569Z,13.70
2018-02-21T15:28:19.919Z,13.70
2018-02-21T15:30:48.605Z,11.33
2018-02-21T15:33:17.808Z,11.50
2018-02-21T15:35:46.089Z,10.73
2018-02-21T15:38:15.108Z,12.10
2018-02-21T15:40:43.402Z,10.93
2018-02-21T15:43:12.214Z,10.40
2018-02-21T15:45:40.722Z,12.13
2018-02-21T15:48:08.993Z,11.30
2018-02-21T15:50:37.263Z,11.50
2018-02-21T15:53:05.581Z,11.37
2018-02-21T15:55:33.944Z,12.90
2018-02-21T15:58:02.213Z,13.73
2018-02-21T16:00:30.548Z,13.57
2018-02-21T16:02:59.604Z,15.43
2018-02-21T16:05:28.298Z,13.30
2018-02-21T16:07:56.647Z,12.10
2018-02-21T16:10:25.088Z,12.27
2018-02-21T16:12:54.868Z,13.47
2018-02-21T16:15:23.157Z,14.90
2018-02-21T16:17:51.464Z,16.00
2018-02-21T16:20:20.700Z,17.07
2018-02-21T16:22:49.018Z,13.87
2018-02-21T16:25:18.713Z,17.10
2018-02-21T16:27:47.746Z,14.00
2018-02-21T16:30:17.789Z,14.47
2018-02-21T16:32:46.516Z,16.80
2018-02-21T16:35:15.730Z,14.67
2018-02-21T16:37:44.272Z,15.90
2018-02-21T16:40:12.576Z,13.67
2018-02-21T16:42:40.840Z,17.20
2018-02-21T16:45:09.713Z,14.90
2018-02-21T16:47:38.068Z,16.10
2018-02-21T16:50:07.860Z,14.60
2018-02-21T16:52:36.421Z,14.20
2018-02-21T16:55:04.711Z,14.63
2018-02-21T16:57:32.994Z,14.60
2018-02-21T17:00:02.144Z,15.90
2018-02-21T17:02:31.382Z,14.03
2018-02-21T17:05:00.102Z,16.20
2018-02-21T17:07:29.242Z,14.47
2018-02-21T17:09:58.984Z,15.90
2018-02-21T17:12:28.219Z,15.80
2018-02-21T17:14:57.361Z,17.00
2018-02-21T17:17:25.676Z,16.83
2018-02-21T17:19:54.008Z,15.20
2018-02-21T17:22:22.387Z,17.17
2018-02-21T17:24:50.750Z,19.50
2018-02-21T17:27:20.632Z,18.40
2018-02-21T17:29:49.840Z,18.73
2018-02-21T17:32:19.648Z,17.43
2018-02-21T17:34:48.912Z,18.67
2018-02-21T17:37:17.192Z,19.20
2018-02-21T17:39:45.565Z,19.70
2018-02-21T17:42:13.832Z,20.00
2018-02-21T17:44:42.488Z,19.83
2018-02-21T17:47:11.544Z,19.70
2018-02-21T17:49:39.845Z,19.17
2018-02-21T17:52:09.468Z,19.93
2018-02-21T17:54:39.501Z,21.30
2018-02-21T17:57:07.778Z,20.87
2018-02-21T17:59:37.268Z,19.07
2018-02-21T18:02:06.808Z,21.80
2018-02-21T18:04:35.086Z,21.33
2018-02-21T18:07:03.376Z,18.63
2018-02-21T18:09:31.677Z,21.83
2018-02-21T18:12:00.728Z,20.40
2018-02-21T18:14:29.029Z,20.93
2018-02-21T18:16:58.228Z,22.03
2018-02-21T18:19:26.608Z,23.47
2018-02-21T18:21:54.904Z,21.60
2018-02-21T18:24:24.983Z,22.50
2018-02-21T18:26:53.309Z,18.73
2018-02-21T18:29:21.587Z,24.03
2018-02-21T18:31:50.748Z,20.83
2018-02-21T18:34:19.062Z,22.57
2018-02-21T18:36:48.135Z,22.40
2018-02-21T18:39:17.244Z,19.63
2018-02-21T18:41:45.593Z,22.90
2018-02-21T18:44:13.890Z,22.67
2018-02-21T18:46:42.285Z,23.63
2018-02-21T18:49:10.600Z,23.37
2018-02-21T18:51:39.647Z,20.53
2018-02-21T18:54:08.037Z,22.97
2018-02-21T18:56:37.227Z,26.63
2018-02-21T18:59:06.015Z,30.57
2018-02-21T19:01:34.290Z,26.93
2018-02-21T19:04:02.673Z,26.50
2018-02-21T19:06:30.952Z,24.63
2018-02-21T19:08:59.358Z,24.13
2018-02-21T19:11:28.097Z,26.83
2018-02-21T19:13:56.420Z,28.10
2018-02-21T19:16:27.243Z,29.50
2018-02-21T19:18:59.983Z,27.17
2018-02-21T19:21:28.268Z,27.67
2018-02-21T19:23:57.058Z,26.80
2018-02-21T19:26:25.351Z,25.93
2018-02-21T19:28:54.816Z,28.57
2018-02-21T19:31:24.251Z,24.83
2018-02-21T19:33:53.444Z,28.00
2018-02-21T19:36:21.720Z,29.30
2018-02-21T19:38:50.308Z,29.40
2018-02-21T19:41:19.508Z,24.17
2018-02-21T19:43:49.596Z,29.60
2018-02-21T19:46:18.744Z,26.13
2018-02-21T19:48:47.104Z,28.87
2018-02-21T19:51:15.451Z,27.80
2018-02-21T19:53:44.526Z,24.93
2018-02-21T19:56:13.214Z,28.00
2018-02-21T19:58:42.237Z,29.30
2018-02-21T20:01:11.703Z,30.27
2018-02-21T20:03:40.035Z,28.30
2018-02-21T20:06:08.318Z,31.43
2018-02-21T20:08:36.625Z,29.57
2018-02-21T20:11:05.987Z,29.10
2018-02-21T20:13:35.050Z,29.77
2018-02-21T20:16:03.354Z,28.20
2018-02-21T20:18:32.482Z,24.67
2018-02-21T20:21:01.129Z,26.40
2018-02-21T20:23:31.252Z,28.43
2018-02-21T20:26:00.678Z,27.60
2018-02-21T20:28:29.487Z,29.33
2018-02-21T20:30:58.837Z,29.73
2018-02-21T20:33:27.528Z,31.00
2018-02-21T20:35:55.801Z,29.70
2018-02-21T20:38:24.655Z,25.20
2018-02-21T20:40:53.736Z,27.97
2018-02-21T20:43:22.113Z,25.73
2018-02-21T20:45:50.548Z,29.23
2018-02-21T20:48:19.584Z,27.03
2018-02-21T20:50:47.998Z,28.53
2018-02-21T20:53:16.404Z,29.90
2018-02-21T20:55:44.986Z,29.77
2018-02-21T20:58:13.621Z,27.10
2018-02-21T21:00:43.516Z,29.00
2018-02-21T21:03:12.589Z,26.40
2018-02-21T21:05:40.891Z,27.60
2018-02-21T21:08:09.205Z,27.90
2018-02-21T21:10:38.972Z,26.50
2018-02-21T21:13:08.660Z,28.90
2018-02-21T21:15:37.264Z,29.37
2018-02-21T21:18:07.756Z,30.87
2018-02-21T21:20:36.051Z,30.43
2018-02-21T21:23:05.540Z,35.93
2018-02-21T21:25:34.008Z,34.30
2018-02-21T21:28:03.105Z,33.17
2018-02-21T21:30:32.116Z,29.60
2018-02-21T21:33:00.433Z,32.13
2018-02-21T21:35:30.095Z,29.63
2018-02-21T21:37:58.452Z,31.43
2018-02-21T21:40:27.472Z,31.30
2018-02-21T21:42:55.752Z,31.17
2018-02-21T21:45:24.112Z,30.00
2018-02-21T21:47:53.560Z,31.67
2018-02-21T21:50:21.842Z,31.60
2018-02-21T21:52:50.214Z,33.33
2018-02-21T21:55:19.078Z,31.30
2018-02-21T21:57:47.364Z,34.47
2018-02-21T22:00:16.148Z,35.50
2018-02-21T22:02:44.434Z,33.13
2018-02-21T22:05:12.728Z,32.40
2018-02-21T22:07:41.196Z,30.60
2018-02-21T22:10:09.773Z,28.57
2018-02-21T22:12:38.077Z,25.60
2018-02-21T22:15:06.382Z,35.33
2018-02-21T22:17:36.161Z,31.53
2018-02-21T22:20:04.865Z,32.50
2018-02-21T22:22:33.183Z,30.07
2018-02-21T22:25:01.637Z,29.50
2018-02-21T22:27:31.088Z,34.57
2018-02-21T22:29:59.395Z,45.20
2018-02-21T22:32:27.688Z,43.00
2018-02-21T22:34:55.984Z,43.10
2018-02-21T22:37:25.045Z,42.80
2018-02-21T22:39:53.730Z,43.43
2018-02-21T22:42:22.648Z,38.33
2018-02-21T22:44:52.641Z,35.10
2018-02-21T22:47:22.011Z,35.17
2018-02-21T22:49:51.018Z,31.63
2018-02-21T22:52:19.830Z,35.83
2018-02-21T22:54:48.138Z,38.10
2018-02-21T22:57:17.280Z,34.70
2018-02-21T22:59:45.869Z,30.30
2018-02-21T23:02:14.165Z,38.40
2018-02-21T23:04:42.447Z,30.10
2018-02-21T23:07:10.804Z,32.03
2018-02-21T23:09:39.112Z,35.60
2018-02-21T23:12:07.796Z,32.80
2018-02-21T23:14:36.062Z,33.37
2018-02-21T23:17:04.953Z,33.60
2018-02-21T23:19:33.720Z,32.20
2018-02-21T23:22:02.704Z,34.47
2018-02-21T23:24:31.544Z,35.90
2018-02-21T23:26:59.861Z,35.90
2018-02-21T23:29:28.888Z,33.90
2018-02-21T23:31:57.176Z,32.17
2018-02-21T23:34:25.480Z,35.37
2018-02-21T23:36:55.904Z,30.20
2018-02-21T23:39:24.737Z,32.90
2018-02-21T23:41:53.702Z,30.60
2018-02-21T23:44:23.357Z,33.67
2018-02-21T23:46:51.717Z,31.17
2018-02-21T23:49:20.003Z,31.07
2018-02-21T23:51:48.582Z,35.90
2018-02-21T23:54:18.110Z,36.80
2018-02-21T23:56:46.648Z,34.50
2018-02-21T23:59:15.708Z,35.13
